Skip Navigation Links
NOAA logo - Click to go to the NOAA homepage
NOAA's National Weather Service
Alaska Aviation Weather Unit
  NWS logo - Click to go to the NWS homepage
Left Navbar Graphic     22 AKDT = 06 GMT

   
NOAA is celebrating 200 years of science, service, and stewardship. Visit the NOAA 200th celebration Web site to learn more.
USA.gov is the U.S. Government's official Web portal to all Federal, state and local government Web resources and services.
Facebook
NWS on Facebook

Important Change Regarding the AAWU Web Presence

 

Over the last several months, the AAWU has been working to navigate its webpages to a nationally supported server. Security, as well as other needs, have necessitated the change.  In the process, we have made an effort to enhance the functionality of our website, as well as some of our products. As of June 20, 2017, aawu.arh.noaa.gov will be discontinued. The new AAWU web address is weather.gov/aawu. It is now live and will run in-parallel with the old site until it is discontinued. Please send any feedback or questions regarding the new webpages to nws.ar.aawu.webauthors@noaa.gov.  Thank you for your patience during this time of transition.
AAWU Home :: Display TAF Add Bookmark
PATL 280036Z AUTO 12007KT 080V140 10SM -SHRA BKN035 06/00 A3001=

PATL 280051Z AUTO 08002KT 10SM BKN039 06/00 A3000=

METAR PATL 280055Z AUTO VRB01KT 10SM BKN039 07/00 A3000=

METAR PATL 280155Z AUTO VRB03KT 10SM FEW095 09/M02 A2998=

METAR PATL 280255Z AUTO 09007G11KT 360V120 10SM FEW055 10/M03 A2996=

METAR PATL 280355Z AUTO VRB05KT 10SM FEW095 09/M01 A2995=

METAR PATL 280455Z AUTO 00000KT 10SM CLR 09/M01 A2995=

METAR PATL 280555Z AUTO VRB06KT 10SM FEW080 BKN110 09/M02 A2995=


NOAA's National Weather Service
Alaska Aviation Weather Unit
6930 Sand Lake Road
Anchorage, AK 99502-1845
Disclaimer
Credits
Glossary
Privacy Policy
About Us
Career Opportunities
Contact AAWU Internet Services Site last modified: April, 17th 2012